sensor_id;sensor_type;location;lat;lon;timestamp;temperature;humidity
20658;DHT22;10488;50.846;4.078;2023-07-08T00:01:49;19.30;99.90
20658;DHT22;10488;50.846;4.078;2023-07-08T00:04:15;19.10;99.90
20658;DHT22;10488;50.846;4.078;2023-07-08T00:06:41;19.10;99.90
20658;DHT22;10488;50.846;4.078;2023-07-08T00:09:10;19.20;99.90
20658;DHT22;10488;50.846;4.078;2023-07-08T00:11:37;19.20;99.90
20658;DHT22;10488;50.846;4.078;2023-07-08T00:14:03;19.20;99.90
20658;DHT22;10488;50.846;4.078;2023-07-08T00:16:29;19.20;99.90
20658;DHT22;10488;50.846;4.078;2023-07-08T00:18:54;19.10;99.90
20658;DHT22;10488;50.846;4.078;2023-07-08T00:21:20;18.90;99.90
20658;DHT22;10488;50.846;4.078;2023-07-08T00:23:47;18.90;99.90
20658;DHT22;10488;50.846;4.078;2023-07-08T00:26:21;18.80;99.90
20658;DHT22;10488;50.846;4.078;2023-07-08T00:28:48;18.70;99.90
20658;DHT22;10488;50.846;4.078;2023-07-08T00:31:14;18.80;99.90
20658;DHT22;10488;50.846;4.078;2023-07-08T00:33:40;18.80;99.90
20658;DHT22;10488;50.846;4.078;2023-07-08T00:36:12;18.90;99.90
20658;DHT22;10488;50.846;4.078;2023-07-08T00:38:39;18.70;99.90
20658;DHT22;10488;50.846;4.078;2023-07-08T00:43:36;18.70;99.90
20658;DHT22;10488;50.846;4.078;2023-07-08T00:48:39;18.70;99.90
20658;DHT22;10488;50.846;4.078;2023-07-08T00:51:08;18.60;99.90
20658;DHT22;10488;50.846;4.078;2023-07-08T00:53:36;18.70;99.90
20658;DHT22;10488;50.846;4.078;2023-07-08T00:56:14;18.70;99.90
20658;DHT22;10488;50.846;4.078;2023-07-08T00:58:51;18.70;99.90
20658;DHT22;10488;50.846;4.078;2023-07-08T01:01:18;18.70;99.90
20658;DHT22;10488;50.846;4.078;2023-07-08T01:04:01;18.50;99.90
20658;DHT22;10488;50.846;4.078;2023-07-08T01:06:29;18.50;99.90
20658;DHT22;10488;50.846;4.078;2023-07-08T01:09:02;18.40;99.90
20658;DHT22;10488;50.846;4.078;2023-07-08T01:11:29;18.30;99.90
20658;DHT22;10488;50.846;4.078;2023-07-08T01:13:55;18.30;99.90
20658;DHT22;10488;50.846;4.078;2023-07-08T01:16:22;18.20;99.90
20658;DHT22;10488;50.846;4.078;2023-07-08T01:18:48;18.30;99.90
20658;DHT22;10488;50.846;4.078;2023-07-08T01:21:44;18.30;99.90
20658;DHT22;10488;50.846;4.078;2023-07-08T01:24:10;18.30;99.90
20658;DHT22;10488;50.846;4.078;2023-07-08T01:26:40;18.30;99.90
20658;DHT22;10488;50.846;4.078;2023-07-08T01:29:07;18.40;99.90
20658;DHT22;10488;50.846;4.078;2023-07-08T01:31:33;18.30;99.90
20658;DHT22;10488;50.846;4.078;2023-07-08T01:34:00;18.20;99.90
20658;DHT22;10488;50.846;4.078;2023-07-08T01:36:30;18.20;99.90
20658;DHT22;10488;50.846;4.078;2023-07-08T01:38:56;18.00;99.90
20658;DHT22;10488;50.846;4.078;2023-07-08T01:41:22;18.00;99.90
20658;DHT22;10488;50.846;4.078;2023-07-08T01:43:48;17.90;99.90
20658;DHT22;10488;50.846;4.078;2023-07-08T01:46:24;17.80;99.90
20658;DHT22;10488;50.846;4.078;2023-07-08T01:48:56;17.80;99.90
20658;DHT22;10488;50.846;4.078;2023-07-08T01:51:24;17.80;99.90
20658;DHT22;10488;50.846;4.078;2023-07-08T01:53:51;17.60;99.90
20658;DHT22;10488;50.846;4.078;2023-07-08T01:56:17;17.70;99.90
20658;DHT22;10488;50.846;4.078;2023-07-08T01:58:42;17.80;99.90
20658;DHT22;10488;50.846;4.078;2023-07-08T02:01:08;17.90;99.90
20658;DHT22;10488;50.846;4.078;2023-07-08T02:03:34;17.60;99.90
20658;DHT22;10488;50.846;4.078;2023-07-08T02:06:01;17.50;99.90
20658;DHT22;10488;50.846;4.078;2023-07-08T02:08:27;17.40;99.90
20658;DHT22;10488;50.846;4.078;2023-07-08T02:10:57;17.40;99.90
20658;DHT22;10488;50.846;4.078;2023-07-08T02:13:23;17.50;99.90
20658;DHT22;10488;50.846;4.078;2023-07-08T02:15:49;17.60;99.90
20658;DHT22;10488;50.846;4.078;2023-07-08T02:18:15;17.60;99.90
20658;DHT22;10488;50.846;4.078;2023-07-08T02:20:46;17.60;99.90
20658;DHT22;10488;50.846;4.078;2023-07-08T02:23:12;17.20;99.90
20658;DHT22;10488;50.846;4.078;2023-07-08T02:25:37;17.10;99.90
20658;DHT22;10488;50.846;4.078;2023-07-08T02:28:03;17.10;99.90
20658;DHT22;10488;50.846;4.078;2023-07-08T02:30:29;16.90;99.90
20658;DHT22;10488;50.846;4.078;2023-07-08T02:32:54;17.00;99.90
20658;DHT22;10488;50.846;4.078;2023-07-08T02:35:28;17.10;99.90
20658;DHT22;10488;50.846;4.078;2023-07-08T02:37:55;17.10;99.90
20658;DHT22;10488;50.846;4.078;2023-07-08T02:40:22;17.20;99.90
20658;DHT22;10488;50.846;4.078;2023-07-08T02:42:48;17.10;99.90
20658;DHT22;10488;50.846;4.078;2023-07-08T02:45:15;17.10;99.90
20658;DHT22;10488;50.846;4.078;2023-07-08T02:47:41;17.20;99.90
20658;DHT22;10488;50.846;4.078;2023-07-08T02:50:08;17.10;99.90
20658;DHT22;10488;50.846;4.078;2023-07-08T02:52:34;17.10;99.90
20658;DHT22;10488;50.846;4.078;2023-07-08T02:55:00;17.10;99.90
20658;DHT22;10488;50.846;4.078;2023-07-08T02:57:26;17.10;99.90
20658;DHT22;10488;50.846;4.078;2023-07-08T02:59:51;17.20;99.90
20658;DHT22;10488;50.846;4.078;2023-07-08T03:02:17;17.10;99.90
20658;DHT22;10488;50.846;4.078;2023-07-08T03:04:43;17.10;99.90
20658;DHT22;10488;50.846;4.078;2023-07-08T03:07:08;16.70;99.90
20658;DHT22;10488;50.846;4.078;2023-07-08T03:09:40;16.70;99.90
20658;DHT22;10488;50.846;4.078;2023-07-08T03:12:08;16.80;99.90
20658;DHT22;10488;50.846;4.078;2023-07-08T03:14:34;16.80;99.90
20658;DHT22;10488;50.846;4.078;2023-07-08T03:17:00;16.90;99.90
20658;DHT22;10488;50.846;4.078;2023-07-08T03:19:25;17.00;99.90
20658;DHT22;10488;50.846;4.078;2023-07-08T03:21:51;17.00;99.90
20658;DHT22;10488;50.846;4.078;2023-07-08T03:24:17;16.90;99.90
20658;DHT22;10488;50.846;4.078;2023-07-08T03:26:44;17.00;99.90
20658;DHT22;10488;50.846;4.078;2023-07-08T03:29:16;17.10;99.90
20658;DHT22;10488;50.846;4.078;2023-07-08T03:31:42;17.10;99.90
20658;DHT22;10488;50.846;4.078;2023-07-08T03:34:13;16.80;99.90
20658;DHT22;10488;50.846;4.078;2023-07-08T03:36:47;16.70;99.90
20658;DHT22;10488;50.846;4.078;2023-07-08T03:39:23;16.70;99.90
20658;DHT22;10488;50.846;4.078;2023-07-08T03:41:50;16.80;99.90
20658;DHT22;10488;50.846;4.078;2023-07-08T03:44:16;16.70;99.90
20658;DHT22;10488;50.846;4.078;2023-07-08T03:46:47;16.70;99.90
20658;DHT22;10488;50.846;4.078;2023-07-08T03:49:15;16.80;99.90
20658;DHT22;10488;50.846;4.078;2023-07-08T03:51:42;16.80;99.90
20658;DHT22;10488;50.846;4.078;2023-07-08T03:54:12;16.70;99.90
20658;DHT22;10488;50.846;4.078;2023-07-08T03:56:39;16.80;99.90
20658;DHT22;10488;50.846;4.078;2023-07-08T03:59:05;16.80;99.90
20658;DHT22;10488;50.846;4.078;2023-07-08T04:01:30;16.60;99.90
20658;DHT22;10488;50.846;4.078;2023-07-08T04:03:57;16.40;99.90
20658;DHT22;10488;50.846;4.078;2023-07-08T04:06:24;16.60;99.90
20658;DHT22;10488;50.846;4.078;2023-07-08T04:08:50;16.40;99.90
20658;DHT22;10488;50.846;4.078;2023-07-08T04:11:19;16.40;99.90
20658;DHT22;10488;50.846;4.078;2023-07-08T04:13:45;16.40;99.90
20658;DHT22;10488;50.846;4.078;2023-07-08T04:16:26;16.20;99.90
20658;DHT22;10488;50.846;4.078;2023-07-08T04:18:53;16.40;99.90
20658;DHT22;10488;50.846;4.078;2023-07-08T04:21:20;16.60;99.90
20658;DHT22;10488;50.846;4.078;2023-07-08T04:23:46;16.80;99.90
20658;DHT22;10488;50.846;4.078;2023-07-08T04:26:11;16.80;99.90
20658;DHT22;10488;50.846;4.078;2023-07-08T04:28:37;16.90;99.90
20658;DHT22;10488;50.846;4.078;2023-07-08T04:31:03;16.90;99.90
20658;DHT22;10488;50.846;4.078;2023-07-08T04:33:29;16.60;99.90
20658;DHT22;10488;50.846;4.078;2023-07-08T04:35:55;16.60;99.90
20658;DHT22;10488;50.846;4.078;2023-07-08T04:38:24;16.60;99.90
20658;DHT22;10488;50.846;4.078;2023-07-08T04:40:51;16.80;99.90
20658;DHT22;10488;50.846;4.078;2023-07-08T04:43:18;17.00;99.90
20658;DHT22;10488;50.846;4.078;2023-07-08T04:45:47;16.90;99.90
20658;DHT22;10488;50.846;4.078;2023-07-08T04:48:16;17.20;99.90
20658;DHT22;10488;50.846;4.078;2023-07-08T04:50:46;17.20;99.90
20658;DHT22;10488;50.846;4.078;2023-07-08T04:53:12;17.00;99.90
20658;DHT22;10488;50.846;4.078;2023-07-08T04:55:43;16.70;99.90
20658;DHT22;10488;50.846;4.078;2023-07-08T04:58:10;16.90;99.90
20658;DHT22;10488;50.846;4.078;2023-07-08T05:00:36;17.20;99.90
20658;DHT22;10488;50.846;4.078;2023-07-08T05:03:02;17.40;99.90
20658;DHT22;10488;50.846;4.078;2023-07-08T05:05:28;17.50;99.90
20658;DHT22;10488;50.846;4.078;2023-07-08T05:07:53;17.20;99.90
20658;DHT22;10488;50.846;4.078;2023-07-08T05:10:19;17.40;99.90
20658;DHT22;10488;50.846;4.078;2023-07-08T05:12:46;17.50;99.90
20658;DHT22;10488;50.846;4.078;2023-07-08T05:15:13;17.40;99.90
20658;DHT22;10488;50.846;4.078;2023-07-08T05:17:39;17.40;99.90
20658;DHT22;10488;50.846;4.078;2023-07-08T05:20:07;17.60;99.90
20658;DHT22;10488;50.846;4.078;2023-07-08T05:22:33;17.80;99.90
20658;DHT22;10488;50.846;4.078;2023-07-08T05:24:59;18.00;99.90
20658;DHT22;10488;50.846;4.078;2023-07-08T05:27:25;17.80;99.90
20658;DHT22;10488;50.846;4.078;2023-07-08T05:29:51;17.70;99.90
20658;DHT22;10488;50.846;4.078;2023-07-08T05:32:17;17.90;99.90
20658;DHT22;10488;50.846;4.078;2023-07-08T05:34:44;18.10;99.90
20658;DHT22;10488;50.846;4.078;2023-07-08T05:37:11;18.20;99.90
20658;DHT22;10488;50.846;4.078;2023-07-08T05:39:37;18.40;99.90
20658;DHT22;10488;50.846;4.078;2023-07-08T05:42:03;18.40;99.90
20658;DHT22;10488;50.846;4.078;2023-07-08T05:44:29;18.80;99.90
20658;DHT22;10488;50.846;4.078;2023-07-08T05:46:55;19.20;99.90
20658;DHT22;10488;50.846;4.078;2023-07-08T05:49:21;20.10;99.90
20658;DHT22;10488;50.846;4.078;2023-07-08T05:51:47;21.90;99.90
20658;DHT22;10488;50.846;4.078;2023-07-08T05:54:13;22.60;99.90
20658;DHT22;10488;50.846;4.078;2023-07-08T05:56:39;24.30;99.90
20658;DHT22;10488;50.846;4.078;2023-07-08T05:59:04;24.60;99.90
20658;DHT22;10488;50.846;4.078;2023-07-08T06:01:31;24.40;99.90
20658;DHT22;10488;50.846;4.078;2023-07-08T06:03:57;24.30;99.90
20658;DHT22;10488;50.846;4.078;2023-07-08T06:06:26;23.90;99.90
20658;DHT22;10488;50.846;4.078;2023-07-08T06:08:53;23.90;99.90
20658;DHT22;10488;50.846;4.078;2023-07-08T06:11:19;26.10;99.90
20658;DHT22;10488;50.846;4.078;2023-07-08T06:13:45;27.70;99.90
20658;DHT22;10488;50.846;4.078;2023-07-08T06:16:11;27.80;99.90
20658;DHT22;10488;50.846;4.078;2023-07-08T06:18:37;25.70;99.90
20658;DHT22;10488;50.846;4.078;2023-07-08T06:21:03;25.20;99.90
20658;DHT22;10488;50.846;4.078;2023-07-08T06:23:28;24.90;99.90
20658;DHT22;10488;50.846;4.078;2023-07-08T06:25:55;24.90;99.90
20658;DHT22;10488;50.846;4.078;2023-07-08T06:28:21;25.90;99.90
20658;DHT22;10488;50.846;4.078;2023-07-08T06:30:47;27.20;99.90
20658;DHT22;10488;50.846;4.078;2023-07-08T06:33:13;27.60;99.90
20658;DHT22;10488;50.846;4.078;2023-07-08T06:35:39;27.30;99.90
20658;DHT22;10488;50.846;4.078;2023-07-08T06:38:05;27.00;99.90
20658;DHT22;10488;50.846;4.078;2023-07-08T06:40:32;27.10;99.90
20658;DHT22;10488;50.846;4.078;2023-07-08T06:42:58;28.20;99.90
20658;DHT22;10488;50.846;4.078;2023-07-08T06:45:23;29.50;99.90
20658;DHT22;10488;50.846;4.078;2023-07-08T06:47:49;30.70;99.90
20658;DHT22;10488;50.846;4.078;2023-07-08T06:50:15;31.00;99.90
20658;DHT22;10488;50.846;4.078;2023-07-08T06:52:41;31.30;99.90
20658;DHT22;10488;50.846;4.078;2023-07-08T06:55:08;32.50;99.90
20658;DHT22;10488;50.846;4.078;2023-07-08T06:57:35;32.10;99.90
20658;DHT22;10488;50.846;4.078;2023-07-08T07:00:01;32.40;99.90
20658;DHT22;10488;50.846;4.078;2023-07-08T07:02:27;32.80;99.90
20658;DHT22;10488;50.846;4.078;2023-07-08T07:04:53;33.10;99.90
20658;DHT22;10488;50.846;4.078;2023-07-08T07:07:20;33.20;99.90
20658;DHT22;10488;50.846;4.078;2023-07-08T07:09:46;33.40;99.90
20658;DHT22;10488;50.846;4.078;2023-07-08T07:12:11;32.70;99.90
20658;DHT22;10488;50.846;4.078;2023-07-08T07:14:37;32.60;99.90
20658;DHT22;10488;50.846;4.078;2023-07-08T07:17:03;32.10;99.90
20658;DHT22;10488;50.846;4.078;2023-07-08T07:19:29;32.00;99.90
20658;DHT22;10488;50.846;4.078;2023-07-08T07:21:54;32.80;99.90
20658;DHT22;10488;50.846;4.078;2023-07-08T07:24:20;33.00;99.90
20658;DHT22;10488;50.846;4.078;2023-07-08T07:26:46;34.00;99.90
20658;DHT22;10488;50.846;4.078;2023-07-08T07:29:13;34.30;99.90
20658;DHT22;10488;50.846;4.078;2023-07-08T07:31:39;32.30;99.90
20658;DHT22;10488;50.846;4.078;2023-07-08T07:34:05;31.20;99.90
20658;DHT22;10488;50.846;4.078;2023-07-08T07:36:31;32.50;99.90
20658;DHT22;10488;50.846;4.078;2023-07-08T07:38:56;31.60;99.90
20658;DHT22;10488;50.846;4.078;2023-07-08T07:41:22;31.70;99.90
20658;DHT22;10488;50.846;4.078;2023-07-08T07:43:48;32.20;99.90
20658;DHT22;10488;50.846;4.078;2023-07-08T07:46:14;32.40;99.90
20658;DHT22;10488;50.846;4.078;2023-07-08T07:48:40;33.50;99.90
20658;DHT22;10488;50.846;4.078;2023-07-08T07:51:06;34.70;99.90
20658;DHT22;10488;50.846;4.078;2023-07-08T07:53:32;34.90;99.90
20658;DHT22;10488;50.846;4.078;2023-07-08T07:55:59;34.40;99.90
20658;DHT22;10488;50.846;4.078;2023-07-08T07:58:26;33.50;99.90
20658;DHT22;10488;50.846;4.078;2023-07-08T08:00:51;33.70;99.90
20658;DHT22;10488;50.846;4.078;2023-07-08T08:03:17;33.80;99.90
20658;DHT22;10488;50.846;4.078;2023-07-08T08:05:43;34.30;99.90
20658;DHT22;10488;50.846;4.078;2023-07-08T08:08:09;34.30;99.90
20658;DHT22;10488;50.846;4.078;2023-07-08T08:10:35;34.10;99.90
20658;DHT22;10488;50.846;4.078;2023-07-08T08:13:01;34.00;99.90
20658;DHT22;10488;50.846;4.078;2023-07-08T08:15:27;34.10;99.90
20658;DHT22;10488;50.846;4.078;2023-07-08T08:17:53;33.70;99.90
20658;DHT22;10488;50.846;4.078;2023-07-08T08:20:20;33.50;99.90
20658;DHT22;10488;50.846;4.078;2023-07-08T08:22:46;34.20;99.90
20658;DHT22;10488;50.846;4.078;2023-07-08T08:25:13;34.20;99.90
20658;DHT22;10488;50.846;4.078;2023-07-08T08:27:39;33.80;99.90
20658;DHT22;10488;50.846;4.078;2023-07-08T08:30:05;33.30;99.90
20658;DHT22;10488;50.846;4.078;2023-07-08T08:32:31;33.30;99.90
20658;DHT22;10488;50.846;4.078;2023-07-08T08:34:57;33.80;99.90
20658;DHT22;10488;50.846;4.078;2023-07-08T08:37:24;33.60;99.90
20658;DHT22;10488;50.846;4.078;2023-07-08T08:39:49;34.20;99.90
20658;DHT22;10488;50.846;4.078;2023-07-08T08:42:39;34.70;99.90
20658;DHT22;10488;50.846;4.078;2023-07-08T08:45:09;34.40;99.90
20658;DHT22;10488;50.846;4.078;2023-07-08T08:47:42;34.60;99.90
20658;DHT22;10488;50.846;4.078;2023-07-08T08:50:30;34.70;99.90
20658;DHT22;10488;50.846;4.078;2023-07-08T08:52:59;35.30;99.90
20658;DHT22;10488;50.846;4.078;2023-07-08T08:55:26;35.30;99.90
20658;DHT22;10488;50.846;4.078;2023-07-08T09:03:16;34.90;99.90
20658;DHT22;10488;50.846;4.078;2023-07-08T09:05:46;34.70;99.90
20658;DHT22;10488;50.846;4.078;2023-07-08T09:08:31;34.20;99.90
20658;DHT22;10488;50.846;4.078;2023-07-08T09:13:51;34.60;99.90
20658;DHT22;10488;50.846;4.078;2023-07-08T09:25:01;35.60;99.90
20658;DHT22;10488;50.846;4.078;2023-07-08T09:27:27;34.60;99.90
20658;DHT22;10488;50.846;4.078;2023-07-08T09:29:53;35.60;99.90
20658;DHT22;10488;50.846;4.078;2023-07-08T09:32:22;34.30;99.90
20658;DHT22;10488;50.846;4.078;2023-07-08T09:35:03;34.40;99.90
20658;DHT22;10488;50.846;4.078;2023-07-08T09:37:31;35.50;99.90
20658;DHT22;10488;50.846;4.078;2023-07-08T09:39:59;36.10;99.90
20658;DHT22;10488;50.846;4.078;2023-07-08T09:42:30;37.00;99.90
20658;DHT22;10488;50.846;4.078;2023-07-08T09:45:12;36.80;99.90
20658;DHT22;10488;50.846;4.078;2023-07-08T09:47:38;37.90;99.90
20658;DHT22;10488;50.846;4.078;2023-07-08T09:50:27;36.40;99.90
20658;DHT22;10488;50.846;4.078;2023-07-08T09:52:55;34.80;99.90
20658;DHT22;10488;50.846;4.078;2023-07-08T09:55:23;33.80;99.90
20658;DHT22;10488;50.846;4.078;2023-07-08T09:57:50;34.00;99.90
20658;DHT22;10488;50.846;4.078;2023-07-08T10:00:25;34.40;99.90
20658;DHT22;10488;50.846;4.078;2023-07-08T10:02:55;34.90;99.90
20658;DHT22;10488;50.846;4.078;2023-07-08T10:05:49;35.60;99.90
20658;DHT22;10488;50.846;4.078;2023-07-08T10:08:20;35.60;99.90
20658;DHT22;10488;50.846;4.078;2023-07-08T10:10:48;35.10;99.90
20658;DHT22;10488;50.846;4.078;2023-07-08T10:16:29;33.90;99.90
20658;DHT22;10488;50.846;4.078;2023-07-08T10:18:55;33.30;99.90
20658;DHT22;10488;50.846;4.078;2023-07-08T10:27:31;32.90;99.90
20658;DHT22;10488;50.846;4.078;2023-07-08T10:32:44;32.90;99.90
20658;DHT22;10488;50.846;4.078;2023-07-08T10:40:52;33.00;99.90
20658;DHT22;10488;50.846;4.078;2023-07-08T10:43:39;33.20;99.90
20658;DHT22;10488;50.846;4.078;2023-07-08T10:51:56;33.20;99.90
20658;DHT22;10488;50.846;4.078;2023-07-08T10:54:58;33.50;99.90
20658;DHT22;10488;50.846;4.078;2023-07-08T11:00:29;34.00;99.90
20658;DHT22;10488;50.846;4.078;2023-07-08T11:03:04;33.70;99.90
20658;DHT22;10488;50.846;4.078;2023-07-08T11:08:22;34.00;99.90
20658;DHT22;10488;50.846;4.078;2023-07-08T11:10:50;33.90;99.90
20658;DHT22;10488;50.846;4.078;2023-07-08T11:13:21;34.10;99.90
20658;DHT22;10488;50.846;4.078;2023-07-08T11:22:13;34.10;99.90
20658;DHT22;10488;50.846;4.078;2023-07-08T11:27:02;34.30;99.90
20658;DHT22;10488;50.846;4.078;2023-07-08T11:30:17;34.40;99.90
20658;DHT22;10488;50.846;4.078;2023-07-08T11:32:48;34.30;99.90
20658;DHT22;10488;50.846;4.078;2023-07-08T11:35:23;34.00;99.90
20658;DHT22;10488;50.846;4.078;2023-07-08T11:37:51;34.30;99.90
20658;DHT22;10488;50.846;4.078;2023-07-08T11:40:22;34.30;99.90
20658;DHT22;10488;50.846;4.078;2023-07-08T11:42:53;33.60;99.90
20658;DHT22;10488;50.846;4.078;2023-07-08T11:45:31;33.40;99.90
20658;DHT22;10488;50.846;4.078;2023-07-08T11:48:27;33.80;99.90
20658;DHT22;10488;50.846;4.078;2023-07-08T11:50:55;33.90;99.90
20658;DHT22;10488;50.846;4.078;2023-07-08T11:56:02;34.20;99.90
20658;DHT22;10488;50.846;4.078;2023-07-08T11:58:50;34.10;99.90
20658;DHT22;10488;50.846;4.078;2023-07-08T12:01:30;34.30;99.90
20658;DHT22;10488;50.846;4.078;2023-07-08T12:09:27;34.50;99.90
20658;DHT22;10488;50.846;4.078;2023-07-08T12:12:03;34.40;99.90
20658;DHT22;10488;50.846;4.078;2023-07-08T12:14:31;34.50;99.90
20658;DHT22;10488;50.846;4.078;2023-07-08T12:16:58;34.40;99.90
20658;DHT22;10488;50.846;4.078;2023-07-08T12:19:25;34.60;99.90
20658;DHT22;10488;50.846;4.078;2023-07-08T12:21:54;34.70;99.90
20658;DHT22;10488;50.846;4.078;2023-07-08T12:24:20;34.80;99.90
20658;DHT22;10488;50.846;4.078;2023-07-08T12:26:51;34.30;99.90
20658;DHT22;10488;50.846;4.078;2023-07-08T12:29:17;34.30;99.90
20658;DHT22;10488;50.846;4.078;2023-07-08T12:31:43;34.40;99.90
20658;DHT22;10488;50.846;4.078;2023-07-08T12:34:13;34.50;99.90
20658;DHT22;10488;50.846;4.078;2023-07-08T12:36:41;34.70;99.90
20658;DHT22;10488;50.846;4.078;2023-07-08T12:39:10;34.50;99.90
20658;DHT22;10488;50.846;4.078;2023-07-08T12:41:37;34.70;99.90
20658;DHT22;10488;50.846;4.078;2023-07-08T12:44:13;34.50;99.90
20658;DHT22;10488;50.846;4.078;2023-07-08T12:46:39;34.60;99.90
20658;DHT22;10488;50.846;4.078;2023-07-08T12:49:05;34.50;99.90
20658;DHT22;10488;50.846;4.078;2023-07-08T12:51:31;34.40;99.90
20658;DHT22;10488;50.846;4.078;2023-07-08T12:53:56;34.80;99.90
20658;DHT22;10488;50.846;4.078;2023-07-08T12:56:23;35.10;99.90
20658;DHT22;10488;50.846;4.078;2023-07-08T12:58:53;35.60;99.90
20658;DHT22;10488;50.846;4.078;2023-07-08T13:01:25;35.80;99.90
20658;DHT22;10488;50.846;4.078;2023-07-08T13:03:56;35.50;99.90
20658;DHT22;10488;50.846;4.078;2023-07-08T13:06:30;34.70;99.90
20658;DHT22;10488;50.846;4.078;2023-07-08T13:09:06;34.00;99.90
20658;DHT22;10488;50.846;4.078;2023-07-08T13:11:33;34.20;99.90
20658;DHT22;10488;50.846;4.078;2023-07-08T13:14:01;34.00;99.90
20658;DHT22;10488;50.846;4.078;2023-07-08T13:16:33;34.00;99.90
20658;DHT22;10488;50.846;4.078;2023-07-08T13:18:59;34.00;99.90
20658;DHT22;10488;50.846;4.078;2023-07-08T13:21:26;33.30;99.90
20658;DHT22;10488;50.846;4.078;2023-07-08T13:23:56;33.30;99.90
20658;DHT22;10488;50.846;4.078;2023-07-08T13:26:25;33.00;99.90
20658;DHT22;10488;50.846;4.078;2023-07-08T13:29:04;33.00;99.90
20658;DHT22;10488;50.846;4.078;2023-07-08T13:31:37;33.20;99.90
20658;DHT22;10488;50.846;4.078;2023-07-08T13:34:13;33.00;99.90
20658;DHT22;10488;50.846;4.078;2023-07-08T13:36:42;33.00;99.90
20658;DHT22;10488;50.846;4.078;2023-07-08T13:39:09;33.20;99.90
20658;DHT22;10488;50.846;4.078;2023-07-08T13:41:43;33.50;99.90
20658;DHT22;10488;50.846;4.078;2023-07-08T13:44:10;33.70;99.90
20658;DHT22;10488;50.846;4.078;2023-07-08T13:46:37;33.90;99.90
20658;DHT22;10488;50.846;4.078;2023-07-08T13:49:43;33.50;99.90
20658;DHT22;10488;50.846;4.078;2023-07-08T13:54:47;34.00;99.90
20658;DHT22;10488;50.846;4.078;2023-07-08T13:57:16;33.90;99.90
20658;DHT22;10488;50.846;4.078;2023-07-08T13:59:42;33.80;99.90
20658;DHT22;10488;50.846;4.078;2023-07-08T14:02:27;33.90;99.90
20658;DHT22;10488;50.846;4.078;2023-07-08T14:04:54;33.80;99.90
20658;DHT22;10488;50.846;4.078;2023-07-08T14:07:23;33.70;99.90
20658;DHT22;10488;50.846;4.078;2023-07-08T14:09:49;33.70;99.90
20658;DHT22;10488;50.846;4.078;2023-07-08T14:12:15;33.50;99.90
20658;DHT22;10488;50.846;4.078;2023-07-08T14:14:41;33.50;99.90
20658;DHT22;10488;50.846;4.078;2023-07-08T14:17:13;33.80;99.90
20658;DHT22;10488;50.846;4.078;2023-07-08T14:19:40;33.70;99.90
20658;DHT22;10488;50.846;4.078;2023-07-08T14:24:39;34.00;99.90
20658;DHT22;10488;50.846;4.078;2023-07-08T14:27:06;34.30;99.90
20658;DHT22;10488;50.846;4.078;2023-07-08T14:29:35;33.50;99.90
20658;DHT22;10488;50.846;4.078;2023-07-08T14:32:01;33.70;99.90
20658;DHT22;10488;50.846;4.078;2023-07-08T14:34:27;33.70;99.90
20658;DHT22;10488;50.846;4.078;2023-07-08T14:36:53;34.00;99.90
20658;DHT22;10488;50.846;4.078;2023-07-08T14:39:19;33.90;99.90
20658;DHT22;10488;50.846;4.078;2023-07-08T14:41:47;33.80;99.90
20658;DHT22;10488;50.846;4.078;2023-07-08T14:44:20;33.50;99.90
20658;DHT22;10488;50.846;4.078;2023-07-08T14:46:46;33.50;99.90
20658;DHT22;10488;50.846;4.078;2023-07-08T14:49:16;33.40;99.90
20658;DHT22;10488;50.846;4.078;2023-07-08T14:51:42;33.50;99.90
20658;DHT22;10488;50.846;4.078;2023-07-08T14:54:08;33.40;99.90
20658;DHT22;10488;50.846;4.078;2023-07-08T14:56:33;33.20;99.90
20658;DHT22;10488;50.846;4.078;2023-07-08T14:58:59;33.00;99.90
20658;DHT22;10488;50.846;4.078;2023-07-08T15:01:25;32.90;99.90
20658;DHT22;10488;50.846;4.078;2023-07-08T15:03:55;32.90;99.90
20658;DHT22;10488;50.846;4.078;2023-07-08T15:06:21;32.90;99.90
20658;DHT22;10488;50.846;4.078;2023-07-08T15:08:47;32.80;99.90
20658;DHT22;10488;50.846;4.078;2023-07-08T15:11:13;32.90;99.90
20658;DHT22;10488;50.846;4.078;2023-07-08T15:13:41;32.80;99.90
20658;DHT22;10488;50.846;4.078;2023-07-08T15:16:14;33.00;99.90
20658;DHT22;10488;50.846;4.078;2023-07-08T15:18:41;32.60;99.90
20658;DHT22;10488;50.846;4.078;2023-07-08T15:21:11;32.80;99.90
20658;DHT22;10488;50.846;4.078;2023-07-08T15:23:37;32.80;99.90
20658;DHT22;10488;50.846;4.078;2023-07-08T15:26:03;32.70;99.90
20658;DHT22;10488;50.846;4.078;2023-07-08T15:31:09;32.50;99.90
20658;DHT22;10488;50.846;4.078;2023-07-08T15:33:37;32.60;99.90
20658;DHT22;10488;50.846;4.078;2023-07-08T15:36:02;32.50;99.90
20658;DHT22;10488;50.846;4.078;2023-07-08T15:38:28;32.60;99.90
20658;DHT22;10488;50.846;4.078;2023-07-08T15:40:54;32.40;99.90
20658;DHT22;10488;50.846;4.078;2023-07-08T15:43:19;32.30;99.90
20658;DHT22;10488;50.846;4.078;2023-07-08T15:45:45;32.30;99.90
20658;DHT22;10488;50.846;4.078;2023-07-08T15:48:16;32.20;99.90
20658;DHT22;10488;50.846;4.078;2023-07-08T15:50:42;32.40;99.90
20658;DHT22;10488;50.846;4.078;2023-07-08T15:53:08;32.50;99.90
20658;DHT22;10488;50.846;4.078;2023-07-08T15:55:38;32.30;99.90
20658;DHT22;10488;50.846;4.078;2023-07-08T15:58:12;32.00;99.90
20658;DHT22;10488;50.846;4.078;2023-07-08T16:00:40;32.10;99.90
20658;DHT22;10488;50.846;4.078;2023-07-08T16:03:10;32.10;99.90
20658;DHT22;10488;50.846;4.078;2023-07-08T16:05:36;32.10;99.90
20658;DHT22;10488;50.846;4.078;2023-07-08T16:08:02;32.30;99.90
20658;DHT22;10488;50.846;4.078;2023-07-08T16:10:32;32.10;99.90
20658;DHT22;10488;50.846;4.078;2023-07-08T16:12:57;32.20;99.90
20658;DHT22;10488;50.846;4.078;2023-07-08T16:15:30;32.30;99.90
20658;DHT22;10488;50.846;4.078;2023-07-08T16:17:57;32.60;99.90
20658;DHT22;10488;50.846;4.078;2023-07-08T16:20:25;32.50;99.90
20658;DHT22;10488;50.846;4.078;2023-07-08T16:22:51;32.50;99.90
20658;DHT22;10488;50.846;4.078;2023-07-08T16:25:23;32.00;99.90
20658;DHT22;10488;50.846;4.078;2023-07-08T16:27:50;32.10;99.90
20658;DHT22;10488;50.846;4.078;2023-07-08T16:30:18;32.40;99.90
20658;DHT22;10488;50.846;4.078;2023-07-08T16:32:45;32.50;99.90
20658;DHT22;10488;50.846;4.078;2023-07-08T16:35:13;32.30;99.90
20658;DHT22;10488;50.846;4.078;2023-07-08T16:37:39;32.40;99.90
20658;DHT22;10488;50.846;4.078;2023-07-08T16:40:06;32.40;99.90
20658;DHT22;10488;50.846;4.078;2023-07-08T16:42:38;32.40;99.90
20658;DHT22;10488;50.846;4.078;2023-07-08T16:45:10;32.30;99.90
20658;DHT22;10488;50.846;4.078;2023-07-08T16:47:36;32.30;99.90
20658;DHT22;10488;50.846;4.078;2023-07-08T16:50:01;32.40;99.90
20658;DHT22;10488;50.846;4.078;2023-07-08T16:52:27;32.30;99.90
20658;DHT22;10488;50.846;4.078;2023-07-08T16:54:53;32.40;99.90